Time;durP1;ratioP1;P1;durP2;ratioP2;P2;SDS_P1;SDS_P2;PMS_P1;PMS_P2;Temp;Humidity;BMP_temperature;BMP_pressure;BME280_temperature;BME280_humidity;BME280_pressure;Samples;Min_cycle;Max_cycle;Signal;HPM_P1;HPM_P2
2021/10/08 00:00:20;;;;;;;22.03;17.20;;;;;;;;;;5014277;28;20010;-87
2021/10/08 00:02:45;;;;;;;27.67;21.83;;;;;;;;;;5013997;28;20257;-87
2021/10/08 00:05:10;;;;;;;25.73;19.97;;;;;;;;;;4996357;28;20036;-87
2021/10/08 00:07:36;;;;;;;27.70;19.13;;;;;;;;;;4996973;28;20044;-87
2021/10/08 00:10:01;;;;;;;23.05;17.75;;;;;;;;;;4996472;28;20067;-87
2021/10/08 00:12:27;;;;;;;28.33;18.75;;;;;;;;;;4996345;28;20026;-87
2021/10/08 00:14:52;;;;;;;27.50;21.92;;;;;;;;;;4996289;28;20049;-87
2021/10/08 00:17:17;;;;;;;23.80;20.42;;;;;;;;;;5013697;28;20018;-87
2021/10/08 00:19:43;;;;;;;24.10;19.65;;;;;;;;;;5013436;28;20018;-87
2021/10/08 00:22:08;;;;;;;22.30;19.38;;;;;;;;;;5013540;28;20022;-87
2021/10/08 00:24:33;;;;;;;26.77;19.65;;;;;;;;;;5012999;28;20044;-87
2021/10/08 00:26:59;;;;;;;33.33;23.83;;;;;;;;;;4996533;28;20109;-87
2021/10/08 00:29:24;;;;;;;27.65;21.70;;;;;;;;;;4993572;28;20022;-87
2021/10/08 00:31:50;;;;;;;35.72;25.42;;;;;;;;;;5010491;28;20018;-87
2021/10/08 00:34:15;;;;;;;22.17;18.73;;;;;;;;;;4993129;28;20026;-87
2021/10/08 00:36:40;;;;;;;31.20;23.13;;;;;;;;;;5010501;28;20026;-86
2021/10/08 00:39:05;;;;;;;30.65;24.15;;;;;;;;;;4993318;28;20384;-87
2021/10/08 00:41:31;;;;;;;43.93;29.60;;;;;;;;;;4992680;28;20541;-87
2021/10/08 00:43:56;;;;;;;32.50;25.02;;;;;;;;;;5010520;28;20273;-87
2021/10/08 00:46:22;;;;;;;49.20;33.80;;;;;;;;;;5011825;28;20034;-87
2021/10/08 00:48:53;;;;;;;40.30;27.50;;;;;;;;;;5010487;28;20030;-87
2021/10/08 00:51:19;;;;;;;34.92;26.50;;;;;;;;;;4992828;28;20443;-87
2021/10/08 00:53:44;;;;;;;33.78;24.63;;;;;;;;;;4992872;28;20018;-87
2021/10/08 00:56:10;;;;;;;33.77;24.33;;;;;;;;;;4992437;28;20050;-87
2021/10/08 00:58:36;;;;;;;28.23;23.08;;;;;;;;;;4992978;28;20269;-87
2021/10/08 01:01:01;;;;;;;30.60;24.20;;;;;;;;;;4992671;28;20029;-87
2021/10/08 01:03:26;;;;;;;26.83;20.13;;;;;;;;;;5011734;28;20053;-87
2021/10/08 01:05:51;;;;;;;27.75;23.42;;;;;;;;;;4992689;28;20304;-87
2021/10/08 01:08:17;;;;;;;57.45;34.60;;;;;;;;;;5010391;28;20046;-87
2021/10/08 01:10:43;;;;;;;23.25;20.25;;;;;;;;;;5013482;28;20036;-87
2021/10/08 01:13:08;;;;;;;23.13;20.00;;;;;;;;;;4996379;28;20026;-87
2021/10/08 01:15:34;;;;;;;24.85;19.98;;;;;;;;;;5013909;28;20025;-87
2021/10/08 01:17:59;;;;;;;32.28;24.35;;;;;;;;;;5013761;28;20068;-87
2021/10/08 01:20:24;;;;;;;46.50;31.53;;;;;;;;;;4995983;28;20025;-87
2021/10/08 01:22:50;;;;;;;51.67;33.10;;;;;;;;;;5015352;28;20256;-87
2021/10/08 01:25:15;;;;;;;33.00;25.65;;;;;;;;;;5013746;28;20125;-87
2021/10/08 01:27:41;;;;;;;21.60;19.27;;;;;;;;;;4996272;28;20067;-87
2021/10/08 01:30:07;;;;;;;24.98;21.42;;;;;;;;;;5013596;28;20041;-87
2021/10/08 01:32:34;;;;;;;23.13;20.20;;;;;;;;;;4996296;28;20140;-87
2021/10/08 01:34:59;;;;;;;28.90;24.17;;;;;;;;;;4995690;28;20057;-87
2021/10/08 01:37:24;;;;;;;22.80;18.73;;;;;;;;;;4996015;28;20539;-87
2021/10/08 01:39:49;;;;;;;27.63;19.83;;;;;;;;;;4995989;28;20094;-87
2021/10/08 01:42:15;;;;;;;23.20;19.40;;;;;;;;;;5015127;28;20025;-87
2021/10/08 01:44:40;;;;;;;24.23;20.00;;;;;;;;;;5013260;28;20288;-87
2021/10/08 01:47:06;;;;;;;31.02;24.13;;;;;;;;;;4995779;28;20465;-87
2021/10/08 01:49:31;;;;;;;49.67;30.42;;;;;;;;;;5013280;28;20026;-88
2021/10/08 01:51:57;;;;;;;37.03;27.00;;;;;;;;;;4995761;28;20389;-87
2021/10/08 01:54:22;;;;;;;37.15;25.20;;;;;;;;;;4995438;28;20021;-87
2021/10/08 01:56:48;;;;;;;29.93;22.63;;;;;;;;;;5013007;28;20054;-87
2021/10/08 01:59:13;;;;;;;21.43;18.50;;;;;;;;;;4995541;28;20425;-87
2021/10/08 02:01:40;;;;;;;21.13;18.10;;;;;;;;;;4995886;28;20273;-88
2021/10/08 02:04:05;;;;;;;28.77;22.30;;;;;;;;;;4996082;28;20017;-87
2021/10/08 02:06:30;;;;;;;36.87;26.47;;;;;;;;;;5012943;28;20034;-87
2021/10/08 02:08:55;;;;;;;24.63;21.00;;;;;;;;;;5013090;28;20307;-87
2021/10/08 02:11:21;;;;;;;28.20;21.30;;;;;;;;;;4995348;28;20057;-87
2021/10/08 02:13:46;;;;;;;32.58;23.52;;;;;;;;;;5012866;28;20026;-87
2021/10/08 02:16:11;;;;;;;38.15;26.95;;;;;;;;;;5012786;28;20037;-87
2021/10/08 02:18:36;;;;;;;36.60;24.58;;;;;;;;;;4995234;28;20021;-88
2021/10/08 02:21:02;;;;;;;28.13;20.63;;;;;;;;;;5014170;28;20030;-87
2021/10/08 02:23:27;;;;;;;31.45;23.45;;;;;;;;;;4996644;28;20026;-87
2021/10/08 02:25:52;;;;;;;19.37;17.23;;;;;;;;;;4994773;28;20034;-87
2021/10/08 02:28:18;;;;;;;20.03;17.27;;;;;;;;;;5012581;28;20354;-87
2021/10/08 02:30:43;;;;;;;21.40;18.92;;;;;;;;;;4994856;28;20261;-88
2021/10/08 02:33:08;;;;;;;25.10;20.38;;;;;;;;;;5012641;28;20049;-87
2021/10/08 02:35:33;;;;;;;21.75;17.40;;;;;;;;;;4994907;28;20025;-87
2021/10/08 02:37:59;;;;;;;26.65;20.98;;;;;;;;;;4994802;28;20025;-87
2021/10/08 02:40:24;;;;;;;39.07;25.10;;;;;;;;;;4994829;28;20026;-88
2021/10/08 02:42:49;;;;;;;35.80;26.15;;;;;;;;;;4996477;28;20273;-87
2021/10/08 02:45:15;;;;;;;45.28;29.77;;;;;;;;;;5012289;28;20030;-87
2021/10/08 02:47:40;;;;;;;36.10;25.55;;;;;;;;;;5012207;28;20045;-87
2021/10/08 02:50:06;;;;;;;33.80;24.10;;;;;;;;;;5012271;28;20022;-88
2021/10/08 02:52:31;;;;;;;32.25;22.23;;;;;;;;;;5012457;28;20032;-88
2021/10/08 02:54:56;;;;;;;24.63;19.52;;;;;;;;;;4994432;28;20405;-87
2021/10/08 02:57:21;;;;;;;25.43;20.73;;;;;;;;;;5012348;28;20029;-87
2021/10/08 02:59:46;;;;;;;34.40;23.47;;;;;;;;;;4994308;28;20257;-88
2021/10/08 03:02:12;;;;;;;28.53;19.57;;;;;;;;;;4998283;28;20032;-88
2021/10/08 03:04:37;;;;;;;36.87;24.20;;;;;;;;;;4994025;28;20292;-87
2021/10/08 03:07:02;;;;;;;49.30;31.30;;;;;;;;;;4994148;28;20311;-87
2021/10/08 03:09:27;;;;;;;34.72;24.70;;;;;;;;;;5011690;28;20044;-87
2021/10/08 03:11:53;;;;;;;25.60;19.43;;;;;;;;;;4994168;28;20026;-87
2021/10/08 03:14:18;;;;;;;36.88;24.88;;;;;;;;;;5011844;28;20259;-87
2021/10/08 03:16:43;;;;;;;36.37;24.07;;;;;;;;;;5011471;28;20116;-87
2021/10/08 03:19:08;;;;;;;28.80;22.90;;;;;;;;;;5011224;28;20273;-87
2021/10/08 03:21:34;;;;;;;26.73;20.13;;;;;;;;;;4993567;28;20030;-87
2021/10/08 03:23:59;;;;;;;37.03;25.95;;;;;;;;;;4993822;28;20045;-88
2021/10/08 03:26:24;;;;;;;33.33;25.15;;;;;;;;;;5011680;28;20040;-87
2021/10/08 03:28:49;;;;;;;24.40;19.23;;;;;;;;;;4993950;28;20435;-87
2021/10/08 03:31:14;;;;;;;20.73;18.20;;;;;;;;;;5011035;28;20765;-87
2021/10/08 03:33:40;;;;;;;25.57;19.17;;;;;;;;;;5011289;28;20014;-87
2021/10/08 03:36:07;;;;;;;37.45;25.17;;;;;;;;;;5011376;28;20253;-87
2021/10/08 03:38:34;;;;;;;33.00;22.90;;;;;;;;;;4993708;28;20037;-87
2021/10/08 03:41:07;;;;;;;32.38;22.70;;;;;;;;;;5011341;28;20025;-87
2021/10/08 03:43:34;;;;;;;36.17;24.98;;;;;;;;;;4993428;28;20128;-87
2021/10/08 03:46:07;;;;;;;32.78;23.70;;;;;;;;;;5010969;28;20030;-87
2021/10/08 03:50:58;;;;;;;43.03;28.23;;;;;;;;;;5011357;28;20021;-87
2021/10/08 03:53:23;;;;;;;25.20;20.15;;;;;;;;;;4993364;28;20029;-88
2021/10/08 03:55:49;;;;;;;24.23;18.88;;;;;;;;;;5010937;28;20053;-87
2021/10/08 03:58:14;;;;;;;22.35;17.85;;;;;;;;;;4993520;28;20042;-87
2021/10/08 04:00:39;;;;;;;28.83;19.43;;;;;;;;;;5010932;28;20389;-87
2021/10/08 04:03:04;;;;;;;25.50;19.80;;;;;;;;;;4993268;28;20347;-87
2021/10/08 04:05:29;;;;;;;33.65;23.13;;;;;;;;;;4993080;28;20489;-87
2021/10/08 04:07:55;;;;;;;27.95;23.38;;;;;;;;;;5010852;28;20022;-87
2021/10/08 04:10:20;;;;;;;23.17;19.63;;;;;;;;;;4993295;28;20044;-87
2021/10/08 04:12:45;;;;;;;26.00;20.15;;;;;;;;;;5012255;28;20257;-87
2021/10/08 04:15:10;;;;;;;23.47;20.23;;;;;;;;;;4993245;28;20030;-87
2021/10/08 04:17:35;;;;;;;44.90;31.23;;;;;;;;;;4993233;28;20348;-87
2021/10/08 04:20:01;;;;;;;47.77;33.20;;;;;;;;;;4993220;28;20265;-87
2021/10/08 04:22:26;;;;;;;33.43;25.97;;;;;;;;;;5010775;28;20100;-87
2021/10/08 04:24:51;;;;;;;29.75;24.60;;;;;;;;;;5010537;28;20105;-87
2021/10/08 04:27:16;;;;;;;34.30;26.70;;;;;;;;;;5011286;28;20101;-87
2021/10/08 04:29:41;;;;;;;45.05;30.65;;;;;;;;;;4994520;28;20774;-87
2021/10/08 04:32:07;;;;;;;27.23;20.83;;;;;;;;;;4993127;28;20121;-87
2021/10/08 04:34:32;;;;;;;48.25;32.58;;;;;;;;;;4993114;28;20081;-87
2021/10/08 04:36:57;;;;;;;50.80;33.33;;;;;;;;;;4992988;28;20018;-87
2021/10/08 04:39:22;;;;;;;42.45;29.55;;;;;;;;;;4992985;28;20299;-87
2021/10/08 04:41:47;;;;;;;50.40;33.53;;;;;;;;;;4992838;28;20053;-87
2021/10/08 04:44:13;;;;;;;58.40;34.35;;;;;;;;;;5013241;28;20022;-87
2021/10/08 04:46:38;;;;;;;39.63;29.10;;;;;;;;;;5015445;28;20117;-87
2021/10/08 04:49:03;;;;;;;40.33;27.50;;;;;;;;;;4996909;28;20045;-87
2021/10/08 04:51:28;;;;;;;41.70;29.87;;;;;;;;;;4996664;28;20033;-87
2021/10/08 04:53:53;;;;;;;51.47;34.27;;;;;;;;;;4996553;28;20280;-87
2021/10/08 04:56:19;;;;;;;28.17;22.10;;;;;;;;;;4996400;28;20287;-87
2021/10/08 04:58:44;;;;;;;50.57;33.50;;;;;;;;;;4999573;28;20627;-88
2021/10/08 05:01:09;;;;;;;42.47;29.17;;;;;;;;;;5014183;28;20267;-87
2021/10/08 05:03:34;;;;;;;51.23;31.87;;;;;;;;;;5014314;28;20970;-87
2021/10/08 05:05:59;;;;;;;51.73;33.07;;;;;;;;;;5014167;28;20399;-87
2021/10/08 05:08:24;;;;;;;26.60;21.40;;;;;;;;;;4997237;28;20835;-87
2021/10/08 05:10:52;;;;;;;37.00;26.70;;;;;;;;;;5022487;23;20057;-87
2021/10/08 05:13:18;;;;;;;41.92;29.92;;;;;;;;;;4975392;28;20108;-87
2021/10/08 05:15:43;;;;;;;64.22;35.00;;;;;;;;;;5004895;28;20028;-87
2021/10/08 05:18:09;;;;;;;37.55;28.70;;;;;;;;;;4996168;28;20560;-87
2021/10/08 05:20:34;;;;;;;39.67;28.02;;;;;;;;;;5013793;28;20021;-87
2021/10/08 05:22:59;;;;;;;49.63;31.15;;;;;;;;;;4995745;28;20018;-87
2021/10/08 05:25:25;;;;;;;26.20;22.10;;;;;;;;;;4995536;28;20041;-87
2021/10/08 05:27:50;;;;;;;27.30;20.90;;;;;;;;;;4995242;28;20030;-87
2021/10/08 05:30:15;;;;;;;32.13;24.90;;;;;;;;;;5012834;28;20068;-87
2021/10/08 05:32:41;;;;;;;23.23;19.40;;;;;;;;;;5010155;28;20026;-87
2021/10/08 05:35:07;;;;;;;26.00;19.48;;;;;;;;;;5121721;23;20421;-87
2021/10/08 05:37:32;;;;;;;27.38;22.70;;;;;;;;;;5032903;28;20760;-87
2021/10/08 05:39:58;;;;;;;31.63;24.23;;;;;;;;;;5017247;28;20060;-87
2021/10/08 05:42:23;;;;;;;27.47;21.47;;;;;;;;;;5025956;28;20813;-87
2021/10/08 05:44:50;;;;;;;26.98;20.42;;;;;;;;;;5012142;28;20339;-87
2021/10/08 05:47:16;;;;;;;45.38;31.13;;;;;;;;;;5014404;28;20040;-87
2021/10/08 05:49:41;;;;;;;68.32;39.47;;;;;;;;;;5014879;28;20022;-87
2021/10/08 05:52:06;;;;;;;47.35;33.45;;;;;;;;;;5011796;28;20113;-87
2021/10/08 05:54:31;;;;;;;38.10;28.08;;;;;;;;;;5006526;28;20354;-87
2021/10/08 05:56:57;;;;;;;49.38;31.98;;;;;;;;;;5033653;28;20380;-87
2021/10/08 05:59:24;;;;;;;40.30;29.50;;;;;;;;;;5032625;28;20026;-87
2021/10/08 06:01:49;;;;;;;44.40;32.15;;;;;;;;;;5032522;28;20052;-87
2021/10/08 06:04:15;;;;;;;29.73;24.00;;;;;;;;;;5014589;28;20025;-88
2021/10/08 06:06:40;;;;;;;41.15;30.08;;;;;;;;;;5032456;28;20296;-87
2021/10/08 06:09:05;;;;;;;41.65;27.30;;;;;;;;;;5015228;28;20028;-87
2021/10/08 06:11:31;;;;;;;41.38;28.70;;;;;;;;;;5018264;28;20024;-87
2021/10/08 06:13:56;;;;;;;56.55;37.08;;;;;;;;;;5015068;28;20807;-87
2021/10/08 06:16:21;;;;;;;60.35;40.42;;;;;;;;;;5033013;28;20021;-87
2021/10/08 06:18:47;;;;;;;40.73;29.57;;;;;;;;;;5016058;28;20041;-87
2021/10/08 06:21:12;;;;;;;32.65;24.25;;;;;;;;;;5033159;28;20684;-87
2021/10/08 06:23:38;;;;;;;32.95;26.20;;;;;;;;;;5032450;28;20021;-87
2021/10/08 06:26:03;;;;;;;36.72;26.98;;;;;;;;;;5031964;28;20080;-87
2021/10/08 06:28:28;;;;;;;49.60;33.88;;;;;;;;;;5036560;28;20022;-87
2021/10/08 06:30:54;;;;;;;51.60;35.50;;;;;;;;;;5014424;28;20018;-87
2021/10/08 06:33:20;;;;;;;32.50;25.02;;;;;;;;;;5014548;28;20120;-87
2021/10/08 06:35:46;;;;;;;57.72;38.35;;;;;;;;;;5014174;28;20145;-87
2021/10/08 06:38:11;;;;;;;30.17;25.58;;;;;;;;;;5014137;28;20025;-87
2021/10/08 06:40:37;;;;;;;38.03;27.50;;;;;;;;;;5031838;28;20014;-87
2021/10/08 06:43:02;;;;;;;38.55;28.88;;;;;;;;;;5032231;28;20022;-87
2021/10/08 06:45:28;;;;;;;38.85;30.80;;;;;;;;;;5032167;28;20137;-87
2021/10/08 06:47:53;;;;;;;57.15;38.63;;;;;;;;;;5034206;28;20033;-87
2021/10/08 06:50:18;;;;;;;47.60;35.25;;;;;;;;;;5031820;28;20792;-87
2021/10/08 06:52:44;;;;;;;57.90;40.05;;;;;;;;;;5013840;28;20033;-87
2021/10/08 06:55:09;;;;;;;38.97;31.77;;;;;;;;;;5031489;28;20029;-87
2021/10/08 06:57:34;;;;;;;32.10;27.33;;;;;;;;;;5031586;28;20264;-87
2021/10/08 06:59:59;;;;;;;32.83;26.25;;;;;;;;;;5014115;28;20019;-86
2021/10/08 07:02:24;;;;;;;39.13;30.53;;;;;;;;;;5013964;28;20021;-87
2021/10/08 07:04:50;;;;;;;32.43;27.60;;;;;;;;;;5016295;28;21084;-87
2021/10/08 07:07:15;;;;;;;46.65;35.83;;;;;;;;;;5013629;28;20276;-86
2021/10/08 07:09:40;;;;;;;32.23;26.67;;;;;;;;;;5031400;28;20053;-86
2021/10/08 07:12:05;;;;;;;53.40;35.93;;;;;;;;;;5031181;28;20013;-87
2021/10/08 07:14:30;;;;;;;39.30;29.15;;;;;;;;;;5013277;28;20260;-87
2021/10/08 07:16:58;;;;;;;41.47;30.40;;;;;;;;;;5030753;28;20041;-87
2021/10/08 07:19:26;;;;;;;31.60;27.55;;;;;;;;;;5031201;28;20260;-86
2021/10/08 07:21:51;;;;;;;31.65;26.33;;;;;;;;;;5034830;28;20060;-87
2021/10/08 07:24:17;;;;;;;30.05;26.60;;;;;;;;;;5029915;28;20033;-86
2021/10/08 07:26:44;;;;;;;30.55;25.15;;;;;;;;;;5030746;28;20044;-86
2021/10/08 07:29:09;;;;;;;33.28;26.50;;;;;;;;;;5013391;28;20022;-86
2021/10/08 07:31:35;;;;;;;33.17;28.03;;;;;;;;;;5031404;28;20092;-87
2021/10/08 07:34:00;;;;;;;46.15;31.95;;;;;;;;;;5030758;28;20024;-86
2021/10/08 07:36:25;;;;;;;49.27;36.13;;;;;;;;;;5030843;28;20048;-87
2021/10/08 07:38:51;;;;;;;44.70;30.20;;;;;;;;;;5018217;28;20291;-86
2021/10/08 07:41:16;;;;;;;36.28;28.83;;;;;;;;;;5012861;28;20112;-87
2021/10/08 07:43:41;;;;;;;44.33;30.35;;;;;;;;;;5012973;28;20072;-87
2021/10/08 07:46:07;;;;;;;35.47;26.77;;;;;;;;;;5030976;28;20393;-87
2021/10/08 07:48:33;;;;;;;48.50;33.45;;;;;;;;;;5030718;28;20025;-87
2021/10/08 07:50:59;;;;;;;33.45;25.35;;;;;;;;;;5012999;28;20032;-86
2021/10/08 07:53:24;;;;;;;31.48;23.67;;;;;;;;;;5032054;28;20092;-86
2021/10/08 07:55:49;;;;;;;38.67;30.45;;;;;;;;;;5012734;28;20023;-86
2021/10/08 07:58:15;;;;;;;43.67;33.22;;;;;;;;;;5030633;28;20033;-86
2021/10/08 08:00:40;;;;;;;42.93;34.10;;;;;;;;;;5030471;28;20033;-87
2021/10/08 08:03:05;;;;;;;42.03;31.10;;;;;;;;;;5030812;28;20264;-87
2021/10/08 08:05:30;;;;;;;45.83;32.20;;;;;;;;;;5030516;28;20300;-86
2021/10/08 08:07:55;;;;;;;36.67;28.15;;;;;;;;;;5012517;28;20256;-87
2021/10/08 08:10:22;;;;;;;43.13;30.45;;;;;;;;;;5030536;28;20021;-87
2021/10/08 08:12:47;;;;;;;36.00;29.45;;;;;;;;;;5031652;28;20025;-86
2021/10/08 08:15:14;;;;;;;33.73;27.20;;;;;;;;;;5029294;28;20330;-86
2021/10/08 08:17:39;;;;;;;40.97;28.33;;;;;;;;;;5030204;28;20335;-87
2021/10/08 08:20:05;;;;;;;34.72;27.30;;;;;;;;;;5013343;28;20156;-87
2021/10/08 08:22:30;;;;;;;35.33;26.40;;;;;;;;;;5012281;28;20477;-87
2021/10/08 08:24:55;;;;;;;30.80;25.48;;;;;;;;;;5011631;28;20033;-87
2021/10/08 08:27:21;;;;;;;31.00;24.98;;;;;;;;;;5021695;28;20014;-87
2021/10/08 08:29:46;;;;;;;30.92;23.90;;;;;;;;;;5041649;28;20064;-87
2021/10/08 08:32:11;;;;;;;29.05;23.27;;;;;;;;;;5029797;28;20025;-87
2021/10/08 08:34:37;;;;;;;28.48;20.77;;;;;;;;;;5013039;28;20021;-87
2021/10/08 08:37:02;;;;;;;22.27;18.48;;;;;;;;;;5029839;28;20177;-87
2021/10/08 08:39:27;;;;;;;28.85;19.55;;;;;;;;;;5030055;28;20104;-87
2021/10/08 08:41:52;;;;;;;23.23;18.08;;;;;;;;;;5012537;28;20465;-87
2021/10/08 08:44:18;;;;;;;23.63;19.63;;;;;;;;;;5040820;28;20013;-87
2021/10/08 08:46:44;;;;;;;25.17;17.98;;;;;;;;;;5032592;28;20324;-86
2021/10/08 08:49:09;;;;;;;15.65;13.90;;;;;;;;;;5030015;28;20022;-87
2021/10/08 08:51:35;;;;;;;21.95;16.02;;;;;;;;;;5013106;28;20668;-87
2021/10/08 08:54:10;;;;;;;20.10;15.98;;;;;;;;;;5011956;28;20048;-87
2021/10/08 08:56:36;;;;;;;20.40;15.70;;;;;;;;;;5030112;28;20799;-87
2021/10/08 08:59:02;;;;;;;20.20;14.18;;;;;;;;;;5018623;28;20156;-86
2021/10/08 09:01:28;;;;;;;19.13;15.77;;;;;;;;;;5012495;28;20052;-86
2021/10/08 09:04:04;;;;;;;17.85;15.35;;;;;;;;;;4992451;28;20485;-86
2021/10/08 09:06:30;;;;;;;16.42;14.15;;;;;;;;;;4992448;28;20041;-86
2021/10/08 09:08:56;;;;;;;20.27;15.02;;;;;;;;;;5010164;28;20381;-87
2021/10/08 09:11:35;;;;;;;20.37;14.80;;;;;;;;;;5008623;28;20026;-87
2021/10/08 09:14:14;;;;;;;19.58;15.30;;;;;;;;;;4992334;28;20615;-86
2021/10/08 09:16:59;;;;;;;19.33;16.63;;;;;;;;;;4993024;28;20072;-87
2021/10/08 09:19:44;;;;;;;20.63;14.95;;;;;;;;;;4992820;28;20397;-86
2021/10/08 09:22:10;;;;;;;18.92;15.55;;;;;;;;;;4992831;28;20056;-86
2021/10/08 09:24:35;;;;;;;20.73;15.67;;;;;;;;;;5008655;28;20068;-86
2021/10/08 09:27:10;;;;;;;19.02;16.05;;;;;;;;;;4992495;28;20299;-86
2021/10/08 09:29:35;;;;;;;19.95;14.85;;;;;;;;;;5025714;28;20384;-87
2021/10/08 09:32:01;;;;;;;23.45;17.65;;;;;;;;;;5015562;28;20017;-87
2021/10/08 09:34:26;;;;;;;21.13;15.75;;;;;;;;;;5018289;28;20112;-86
2021/10/08 09:37:02;;;;;;;19.55;14.90;;;;;;;;;;5013038;28;20062;-86
2021/10/08 09:39:32;;;;;;;13.10;10.65;;;;;;;;;;5013271;28;20025;-87
2021/10/08 09:41:59;;;;;;;16.27;11.77;;;;;;;;;;5011797;28;20125;-87
2021/10/08 09:44:25;;;;;;;13.80;10.15;;;;;;;;;;5011583;28;20485;-87
2021/10/08 09:46:50;;;;;;;11.93;10.68;;;;;;;;;;5011580;28;20037;-87
2021/10/08 09:49:22;;;;;;;11.73;10.57;;;;;;;;;;5011700;28;20070;-86
2021/10/08 09:51:47;;;;;;;10.90;8.25;;;;;;;;;;5013847;28;20061;-87
2021/10/08 09:54:12;;;;;;;20.38;17.77;;;;;;;;;;5014847;28;20476;-86
2021/10/08 09:56:41;;;;;;;11.93;9.63;;;;;;;;;;5009263;28;20107;-87
2021/10/08 09:59:08;;;;;;;11.50;9.07;;;;;;;;;;5012860;28;20360;-87
2021/10/08 10:01:34;;;;;;;12.70;9.77;;;;;;;;;;4995057;28;20030;-87
2021/10/08 10:03:59;;;;;;;10.80;7.53;;;;;;;;;;4994971;28;20429;-86
2021/10/08 10:06:25;;;;;;;11.15;8.00;;;;;;;;;;5000872;28;20036;-87
2021/10/08 10:08:50;;;;;;;10.25;8.25;;;;;;;;;;5016309;28;20027;-87
2021/10/08 10:11:16;;;;;;;16.73;9.95;;;;;;;;;;5032502;28;20022;-86
2021/10/08 10:13:44;;;;;;;15.23;9.88;;;;;;;;;;5032320;28;20025;-86
2021/10/08 10:16:09;;;;;;;13.05;10.93;;;;;;;;;;5014132;28;20043;-86
2021/10/08 10:18:35;;;;;;;13.55;11.52;;;;;;;;;;5030797;28;20119;-87
2021/10/08 10:21:01;;;;;;;16.05;12.40;;;;;;;;;;5014312;28;20454;-87
2021/10/08 10:23:28;;;;;;;14.73;11.70;;;;;;;;;;5014652;28;20032;-87
2021/10/08 10:25:53;;;;;;;11.55;10.30;;;;;;;;;;5036200;28;20072;-86
2021/10/08 10:28:19;;;;;;;16.87;11.63;;;;;;;;;;5032083;28;20018;-87
2021/10/08 10:30:45;;;;;;;17.95;11.60;;;;;;;;;;5014136;28;20264;-87
2021/10/08 10:33:11;;;;;;;14.23;11.90;;;;;;;;;;5032422;28;20044;-87
2021/10/08 10:35:36;;;;;;;17.38;11.38;;;;;;;;;;5031583;28;20103;-87
2021/10/08 10:38:19;;;;;;;16.92;10.80;;;;;;;;;;5030581;28;20021;-87
2021/10/08 10:40:45;;;;;;;17.10;11.48;;;;;;;;;;5031514;28;20084;-87
2021/10/08 10:43:13;;;;;;;12.68;11.25;;;;;;;;;;5031982;28;20029;-87
2021/10/08 10:45:42;;;;;;;16.55;10.30;;;;;;;;;;5015501;28;20688;-86
2021/10/08 10:48:11;;;;;;;14.25;11.15;;;;;;;;;;5013594;28;20026;-86
2021/10/08 10:50:48;;;;;;;17.20;10.68;;;;;;;;;;5031605;28;20025;-87
2021/10/08 10:53:13;;;;;;;14.23;10.68;;;;;;;;;;5035760;28;20029;-88
2021/10/08 10:55:38;;;;;;;17.00;10.90;;;;;;;;;;5037432;28;20037;-86
2021/10/08 10:58:05;;;;;;;15.98;12.55;;;;;;;;;;5033343;28;20025;-87
2021/10/08 11:00:34;;;;;;;12.65;11.38;;;;;;;;;;5033889;28;20495;-88
2021/10/08 11:03:01;;;;;;;15.43;11.00;;;;;;;;;;5038552;28;20021;-86
2021/10/08 11:05:27;;;;;;;12.68;10.40;;;;;;;;;;4999421;28;20061;-86
2021/10/08 11:08:09;;;;;;;10.32;9.32;;;;;;;;;;5011460;28;20041;-86
2021/10/08 11:10:36;;;;;;;14.07;9.32;;;;;;;;;;5000941;28;20488;-86
2021/10/08 11:13:20;;;;;;;10.52;9.05;;;;;;;;;;5031158;28;20045;-86
2021/10/08 11:15:52;;;;;;;11.95;10.43;;;;;;;;;;5013524;28;20124;-86
2021/10/08 11:18:33;;;;;;;10.82;9.70;;;;;;;;;;5013424;28;20113;-86
2021/10/08 11:20:58;;;;;;;14.95;9.82;;;;;;;;;;5031420;28;20021;-86
2021/10/08 11:23:32;;;;;;;13.60;9.80;;;;;;;;;;5016703;28;20032;-85
2021/10/08 11:25:59;;;;;;;11.57;10.07;;;;;;;;;;5013113;28;20331;-86
2021/10/08 11:28:26;;;;;;;12.75;11.15;;;;;;;;;;5013265;28;20083;-86
2021/10/08 11:30:51;;;;;;;13.95;10.68;;;;;;;;;;5012862;28;20021;-85
2021/10/08 11:33:16;;;;;;;13.95;11.82;;;;;;;;;;5013001;28;20029;-85
2021/10/08 11:35:41;;;;;;;14.43;12.97;;;;;;;;;;5012718;28;20080;-86
2021/10/08 11:38:06;;;;;;;16.90;12.43;;;;;;;;;;5035489;28;20039;-86
2021/10/08 11:40:37;;;;;;;15.23;13.68;;;;;;;;;;5030734;28;20017;-85
2021/10/08 11:43:09;;;;;;;15.35;14.05;;;;;;;;;;5030948;28;20096;-85
2021/10/08 11:45:38;;;;;;;15.52;13.18;;;;;;;;;;5030693;28;20042;-86
2021/10/08 11:48:12;;;;;;;16.63;14.85;;;;;;;;;;5012544;28;20033;-86
2021/10/08 11:53:02;;;;;;;15.33;13.80;;;;;;;;;;5032503;28;20021;-86
2021/10/08 11:55:29;;;;;;;17.33;14.25;;;;;;;;;;5030480;28;20600;-86
2021/10/08 11:58:04;;;;;;;15.80;14.18;;;;;;;;;;5012718;28;20071;-86
2021/10/08 12:00:44;;;;;;;15.13;13.57;;;;;;;;;;5030406;28;20022;-85
2021/10/08 12:03:13;;;;;;;17.45;13.75;;;;;;;;;;5012347;28;20025;-86
2021/10/08 12:05:42;;;;;;;16.75;13.48;;;;;;;;;;5012322;28;20114;-86
2021/10/08 12:08:11;;;;;;;14.93;13.40;;;;;;;;;;5030980;28;20029;-85
2021/10/08 12:10:36;;;;;;;14.35;12.88;;;;;;;;;;5013089;28;20025;-86
2021/10/08 12:25:52;;;;;;;13.15;10.85;;;;;;;;;;5248165;23;20060;-88
2021/10/08 12:28:19;;;;;;;13.50;11.85;;;;;;;;;;5065370;28;20047;-87
2021/10/08 12:30:51;;;;;;;12.50;11.18;;;;;;;;;;5065364;28;20085;-87
2021/10/08 12:33:23;;;;;;;11.65;10.15;;;;;;;;;;5063600;28;20024;-87
2021/10/08 12:36:07;;;;;;;11.32;9.40;;;;;;;;;;5038238;28;20128;-88
2021/10/08 12:38:52;;;;;;;10.48;9.52;;;;;;;;;;5031934;28;20518;-88
2021/10/08 12:41:24;;;;;;;13.68;10.18;;;;;;;;;;5050374;28;20110;-87
2021/10/08 12:44:00;;;;;;;10.52;9.52;;;;;;;;;;5031623;28;20021;-88
2021/10/08 12:46:33;;;;;;;15.75;10.80;;;;;;;;;;5031467;28;20032;-88
2021/10/08 12:48:58;;;;;;;10.52;9.43;;;;;;;;;;5049465;28;20025;-87
2021/10/08 12:51:23;;;;;;;10.38;9.35;;;;;;;;;;5031687;28;20013;-86
2021/10/08 12:54:09;;;;;;;14.20;10.63;;;;;;;;;;5031558;28;20039;-87
2021/10/08 12:56:34;;;;;;;10.95;9.30;;;;;;;;;;5049049;28;20041;-87
2021/10/08 12:58:59;;;;;;;9.10;8.03;;;;;;;;;;5049505;28;20017;-87
2021/10/08 13:01:24;;;;;;;9.33;7.67;;;;;;;;;;5064049;28;20674;-87
2021/10/08 13:03:50;;;;;;;8.63;6.73;;;;;;;;;;5051542;28;20027;-87
2021/10/08 13:06:18;;;;;;;11.73;7.80;;;;;;;;;;5055022;28;20037;-87
2021/10/08 13:09:02;;;;;;;7.90;7.10;;;;;;;;;;5073363;28;20094;-87
2021/10/08 13:11:34;;;;;;;7.53;6.60;;;;;;;;;;5072891;28;20016;-87
2021/10/08 13:13:59;;;;;;;6.97;6.35;;;;;;;;;;5073051;28;20020;-87
2021/10/08 13:16:25;;;;;;;7.10;6.40;;;;;;;;;;5072966;28;20422;-87
2021/10/08 13:18:50;;;;;;;7.32;6.32;;;;;;;;;;5072791;28;20025;-87
2021/10/08 13:21:17;;;;;;;9.45;7.72;;;;;;;;;;5055451;28;20028;-88
2021/10/08 13:23:42;;;;;;;11.70;6.13;;;;;;;;;;5055712;28;20387;-88
2021/10/08 13:26:09;;;;;;;6.43;5.65;;;;;;;;;;5073055;28;20110;-87
2021/10/08 13:28:34;;;;;;;7.35;5.80;;;;;;;;;;5072961;28;20483;-87
2021/10/08 13:30:59;;;;;;;7.18;6.15;;;;;;;;;;5054759;28;20575;-87
2021/10/08 13:33:25;;;;;;;6.47;5.90;;;;;;;;;;5054694;28;20032;-87
2021/10/08 13:35:53;;;;;;;6.47;5.55;;;;;;;;;;5073314;28;20459;-86
2021/10/08 13:38:19;;;;;;;5.68;5.15;;;;;;;;;;5054678;28;20020;-86
2021/10/08 13:40:44;;;;;;;5.60;5.05;;;;;;;;;;5072940;28;20024;-86
2021/10/08 13:43:10;;;;;;;6.25;5.32;;;;;;;;;;5072902;28;20021;-87
2021/10/08 13:45:35;;;;;;;6.10;5.50;;;;;;;;;;5054421;28;20033;-87
2021/10/08 13:48:00;;;;;;;8.07;5.43;;;;;;;;;;5072610;28;20024;-87
2021/10/08 13:50:25;;;;;;;6.80;5.43;;;;;;;;;;5054367;28;20049;-87
2021/10/08 13:52:51;;;;;;;8.90;5.10;;;;;;;;;;5072285;28;20384;-87
2021/10/08 13:55:16;;;;;;;6.53;5.10;;;;;;;;;;5072355;28;20254;-86
2021/10/08 13:57:41;;;;;;;7.37;4.80;;;;;;;;;;5072353;28;20048;-86
2021/10/08 14:00:07;;;;;;;6.97;5.20;;;;;;;;;;5071786;28;20422;-86
2021/10/08 14:02:42;;;;;;;5.93;5.32;;;;;;;;;;5071487;28;20066;-86
2021/10/08 14:05:22;;;;;;;6.25;5.65;;;;;;;;;;5071535;28;20039;-87
2021/10/08 14:10:22;;;;;;;8.35;6.03;;;;;;;;;;5066037;28;20109;-85
2021/10/08 14:12:51;;;;;;;7.63;6.15;;;;;;;;;;5051622;28;20100;-86
2021/10/08 14:15:18;;;;;;;8.45;6.70;;;;;;;;;;5033267;28;20025;-86
2021/10/08 14:17:43;;;;;;;7.30;5.50;;;;;;;;;;5051386;28;20020;-87
2021/10/08 14:20:09;;;;;;;5.78;5.18;;;;;;;;;;5051335;28;20025;-86
2021/10/08 14:22:35;;;;;;;9.35;5.32;;;;;;;;;;5051516;28;20083;-86
2021/10/08 14:25:01;;;;;;;4.90;3.30;;;;;;;;;;5051130;28;20052;-87
2021/10/08 14:27:27;;;;;;;7.35;4.28;;;;;;;;;;5051324;28;20025;-86
2021/10/08 14:29:52;;;;;;;4.65;4.25;;;;;;;;;;5050755;28;20104;-87
2021/10/08 14:32:18;;;;;;;5.17;4.07;;;;;;;;;;5033710;28;20104;-86
2021/10/08 14:34:43;;;;;;;5.93;3.60;;;;;;;;;;5033322;28;20025;-87
2021/10/08 14:37:08;;;;;;;5.97;4.35;;;;;;;;;;5051245;28;20032;-87